2 de julio de 2022

Hora Código Tiempo Temp. Visibilidad Cielo nuboso Viento METAR/SPECI
10:00 a. m.
V
70 °F 6¼ mi+ - Var Var 3 kt METAR LFBO 020800Z AUTO VRB03KT CAVOK 21/12 Q1020 NOSIG
9:30 a. m.
V
68 °F 6¼ mi+ - Var Var 2 kt METAR LFBO 020730Z AUTO VRB02KT CAVOK 20/12 Q1020 NOSIG
9:00 a. m.
V
64 °F 6¼ mi+ - Var Var 2 kt METAR LFBO 020700Z AUTO VRB02KT 9999 FEW009 18/13 Q1020 NOSIG
8:30 a. m.
V
61 °F 6¼ mi+ - 160° 160° 3 kt METAR LFBO 020630Z AUTO 16003KT 130V210 CAVOK 16/13 Q1020 NOSIG
8:00 a. m.
V
59 °F 6¼ mi+ - Var Var 3 kt METAR LFBO 020600Z AUTO VRB03KT CAVOK 15/13 Q1020 NOSIG
7:30 a. m.
V
57 °F 6¼ mi+ - 170° 170° 3 kt METAR LFBO 020530Z AUTO 17003KT 9999 FEW010 14/12 Q1020 NOSIG
7:00 a. m.
V
55 °F 6¼ mi+ - 160° 160° 2 kt METAR LFBO 020500Z AUTO 16002KT CAVOK 13/12 Q1020 NOSIG
6:30 a. m.
V
55 °F 6¼ mi+ - 170° 170° 2 kt METAR LFBO 020430Z AUTO 17002KT CAVOK 13/11 Q1020 NOSIG
6:00 a. m.
V
55 °F 6¼ mi+ - Var Var 2 kt METAR LFBO 020400Z AUTO VRB02KT CAVOK 13/11 Q1020 NOSIG
5:30 a. m.
V
55 °F 6¼ mi+ - 170° 170° 3 kt METAR LFBO 020330Z AUTO 17003KT CAVOK 13/11 Q1020 NOSIG
5:00 a. m.
V
55 °F 6¼ mi+ - 170° 170° 4 kt METAR LFBO 020300Z AUTO 17004KT CAVOK 13/10 Q1020 NOSIG
4:30 a. m.
V
57 °F 6¼ mi+ - Var Var 2 kt METAR LFBO 020230Z AUTO VRB02KT CAVOK 14/10 Q1020 NOSIG
4:00 a. m.
V
57 °F 6¼ mi+ - 320° 320° 3 kt METAR LFBO 020200Z AUTO 32003KT CAVOK 14/10 Q1020 NOSIG
3:30 a. m.
V
59 °F 6¼ mi+ - 310° 310° 3 kt METAR LFBO 020130Z AUTO 31003KT CAVOK 15/10 Q1020 NOSIG
3:00 a. m.
V
59 °F 6¼ mi+ - Var Var 2 kt METAR LFBO 020100Z AUTO VRB02KT CAVOK 15/10 Q1020 NOSIG
2:30 a. m.
V
61 °F 6¼ mi+ - 350° 350° 3 kt METAR LFBO 020030Z AUTO 35003KT CAVOK 16/10 Q1020 NOSIG
2:00 a. m.
V
61 °F 6¼ mi+ - 330° 330° 4 kt METAR LFBO 020000Z AUTO 33004KT 310V010 CAVOK 16/10 Q1020 NOSIG
1:30 a. m.
V
61 °F 6¼ mi+ - 320° 320° 4 kt METAR LFBO 012330Z AUTO 32004KT CAVOK 16/10 Q1021 NOSIG
1:00 a. m.
V
64 °F 6¼ mi+ - 340° 340° 3 kt METAR LFBO 012300Z AUTO 34003KT 310V010 CAVOK 18/10 Q1021 NOSIG
12:30 a. m.
V
66 °F 6¼ mi+ - 360° 360° 5 kt METAR LFBO 012230Z AUTO 36005KT CAVOK 19/10 Q1021 NOSIG
12:00 a. m.
V
66 °F 6¼ mi+ - 350° 350° 5 kt METAR LFBO 012200Z AUTO 35005KT CAVOK 19/10 Q1021 NOSIG

1 de julio de 2022

Hora Código Tiempo Temp. Visibilidad Cielo nuboso Viento METAR/SPECI
11:30 p. m.
V
68 °F 6¼ mi+ - 350° 350° 4 kt METAR LFBO 012130Z AUTO 35004KT CAVOK 20/09 Q1021 NOSIG
11:00 p. m.
V
68 °F 6¼ mi+ - 340° 340° 3 kt METAR LFBO 012100Z AUTO 34003KT 300V020 CAVOK 20/09 Q1021 NOSIG
10:30 p. m.
V
68 °F 6¼ mi+ - 300° 300° 3 kt METAR LFBO 012030Z AUTO 30003KT CAVOK 20/09 Q1021 NOSIG
10:00 p. m.
V
70 °F 6¼ mi+ - 310° 310° 5 kt METAR LFBO 012000Z AUTO 31005KT CAVOK 21/09 Q1020 NOSIG
9:30 p. m.
V
70 °F 6¼ mi+ - 300° 300° 6 kt METAR LFBO 011930Z AUTO 30006KT CAVOK 21/09 Q1020 NOSIG
9:00 p. m.
V
72 °F 6¼ mi+ - 310° 310° 6 kt METAR LFBO 011900Z AUTO 31006KT CAVOK 22/09 Q1020 NOSIG
8:30 p. m.
V
73 °F 6¼ mi+ - 330° 330° 5 kt METAR LFBO 011830Z AUTO 33005KT 290V360 CAVOK 23/09 Q1020 NOSIG
8:00 p. m.
V
75 °F 6¼ mi+ - 320° 320° 9 kt METAR LFBO 011800Z AUTO 32009KT 290V350 CAVOK 24/10 Q1020 NOSIG
7:30 p. m.
V
75 °F 6¼ mi+ - 300° 300° 6 kt METAR LFBO 011730Z AUTO 30006KT 210V340 CAVOK 24/10 Q1020 NOSIG
7:00 p. m.
V
75 °F 6¼ mi+ - 300° 300° 6 kt METAR LFBO 011700Z AUTO 30006KT 190V360 CAVOK 24/10 Q1020 NOSIG
6:30 p. m.
V
75 °F 6¼ mi+ - 350° 350° 6 kt METAR LFBO 011630Z AUTO 35006KT 260V030 CAVOK 24/09 Q1020 NOSIG
6:00 p. m.
V
75 °F 6¼ mi+ - 360° 360° 6 kt METAR LFBO 011600Z AUTO 36006KT 290V030 CAVOK 24/08 Q1020 NOSIG
5:30 p. m.
V
75 °F 6¼ mi+ - 330° 330° 5 kt METAR LFBO 011530Z AUTO 33005KT 260V030 CAVOK 24/09 Q1020 NOSIG
5:00 p. m.
V
75 °F 6¼ mi+ - 330° 330° 4 kt METAR LFBO 011500Z AUTO 33004KT 260V020 CAVOK 24/08 Q1020 NOSIG
4:30 p. m.
V
73 °F 6¼ mi+ - 300° 300° 5 kt METAR LFBO 011430Z AUTO 30005KT 230V020 CAVOK 23/09 Q1020 NOSIG
4:00 p. m.
V
73 °F 6¼ mi+ - 040° 040° 8 kt METAR LFBO 011400Z AUTO 04008KT 320V090 CAVOK 23/08 Q1021 NOSIG
3:30 p. m.
V
73 °F 6¼ mi+ - 280° 280° 6 kt METAR LFBO 011330Z AUTO 28006KT 190V360 CAVOK 23/10 Q1021 NOSIG
3:00 p. m.
V
73 °F 6¼ mi+ 4.900 ft Var Var 5 kt METAR LFBO 011300Z AUTO VRB05KT 9999 BKN049 23/11 Q1021 NOSIG
2:30 p. m.
V
72 °F 6¼ mi+ 4.800 ft 320° 320° 6 kt METAR LFBO 011230Z AUTO 32006KT 280V050 9999 BKN048 22/10 Q1021 NOSIG
2:00 p. m.
V
72 °F 6¼ mi+ 4.600 ft 350° 350° 7 kt METAR LFBO 011200Z AUTO 35007KT 290V060 9999 BKN046 BKN054 22/10 Q1021 NOSIG
1:30 p. m.
V
72 °F 6¼ mi+ 4.600 ft 360° 360° 5 kt METAR LFBO 011130Z AUTO 36005KT 310V050 9999 FEW040 BKN046 22/10 Q1021 NOSIG
1:00 p. m.
V
70 °F 6¼ mi+ - 020° 020° 5 kt METAR LFBO 011100Z AUTO 02005KT 340V100 9999 SCT042 SCT048 21/10 Q1021 NOSIG
12:30 p. m.
V
68 °F 6¼ mi+ - 330° 330° 4 kt METAR LFBO 011030Z AUTO 33004KT 260V040 9999 FEW040 SCT048 20/10 Q1021 NOSIG
12:00 p. m.
V
66 °F 6¼ mi+ 4.500 ft 330° 330° 4 kt METAR LFBO 011000Z AUTO 33004KT 280V040 9999 FEW031 BKN045 19/12 Q1021 NOSIG
11:30 a. m.
V
64 °F 6¼ mi+ 4.200 ft Var Var 3 kt METAR LFBO 010930Z AUTO VRB03KT 9999 FEW024 BKN042 18/12 Q1021 NOSIG
11:00 a. m.
V
64 °F 6¼ mi+ 4.500 ft Var Var 3 kt METAR LFBO 010900Z AUTO VRB03KT 9999 FEW020 SCT032 BKN045 18/12 Q1021 NOSIG
10:30 a. m.
V
63 °F 6¼ mi+ 4.600 ft Var Var 2 kt METAR LFBO 010830Z AUTO VRB02KT 9999 SCT017 BKN046 17/12 Q1021 NOSIG
10:00 a. m.
M
61 °F 6¼ mi+ 1.500 ft Var Var 3 kt METAR LFBO 010800Z AUTO VRB03KT 9999 BKN015 OVC046 16/12 Q1021 NOSIG
9:30 a. m.
M
61 °F 6¼ mi+ 1.500 ft 360° 360° 4 kt METAR LFBO 010730Z AUTO 36004KT 300V040 9999 BKN015 OVC046 16/12 Q1021 NOSIG
9:00 a. m.
M
61 °F 6¼ mi+ 1.200 ft Var Var 3 kt METAR LFBO 010700Z AUTO VRB03KT 9999 BKN012 BKN046 16/13 Q1021 BECMG SCT016
8:30 a. m.
M
59 °F 6¼ mi+ 1.100 ft Var Var 3 kt METAR LFBO 010630Z AUTO VRB03KT 9999 BKN011 BKN048 15/13 Q1021 BECMG SCT016
8:00 a. m.
I
57 °F 6¼ mi+ 900 ft 040° 040° 5 kt METAR LFBO 010600Z AUTO 04005KT 350V070 9999 OVC009 14/12 Q1021 BECMG SCT016
7:30 a. m.
M
57 °F 6¼ mi+ 1.000 ft Var Var 2 kt METAR LFBO 010530Z AUTO VRB02KT 9999 OVC010 14/12 Q1021 BECMG FEW012 BKN040
7:00 a. m.
M
57 °F 6¼ mi+ 1.000 ft 360° 360° 5 kt METAR LFBO 010500Z AUTO 36005KT 9999 BKN010 BKN014 14/13 Q1021 BECMG BKN030 BKN070
6:30 a. m.
V
57 °F 6¼ mi+ - 310° 310° 5 kt METAR LFBO 010430Z AUTO 31005KT 9999 FEW013 SCT074 14/13 Q1021 NOSIG
6:00 a. m.
V
57 °F 6¼ mi+ 3.600 ft 320° 320° 4 kt METAR LFBO 010400Z AUTO 32004KT 9999 BKN036 OVC074 14/13 Q1021 NOSIG
5:30 a. m.
V
57 °F 6¼ mi+ 3.500 ft 310° 310° 4 kt METAR LFBO 010330Z AUTO 31004KT 270V330 9999 FEW027 BKN035 BKN078 14/13 Q1021 NOSIG
5:00 a. m.
M
57 °F 6¼ mi+ 2.800 ft 310° 310° 3 kt METAR LFBO 010300Z AUTO 31003KT 9999 BKN028 OVC033 14/13 Q1021 NOSIG
4:30 a. m.
V
57 °F 6¼ mi+ 3.200 ft 290° 290° 4 kt METAR LFBO 010230Z AUTO 29004KT 9999 SCT027 BKN032 OVC078 14/13 Q1021 NOSIG
4:00 a. m.
V
57 °F 6¼ mi+ - 300° 300° 3 kt METAR LFBO 010200Z AUTO 30003KT CAVOK 14/13 Q1021 NOSIG
3:30 a. m.
V
57 °F 6¼ mi+ 7.600 ft 300° 300° 4 kt METAR LFBO 010130Z AUTO 30004KT 9999 FEW049 SCT062 OVC076 14/13 Q1021 NOSIG
3:00 a. m.
V
57 °F 6¼ mi+ - Var Var 2 kt METAR LFBO 010100Z AUTO VRB02KT CAVOK 14/13 Q1021 NOSIG
2:30 a. m.
V
57 °F 6¼ mi+ - 220° 220° 4 kt METAR LFBO 010030Z AUTO 22004KT CAVOK 14/13 Q1021 NOSIG
2:00 a. m.
V
57 °F 6¼ mi+ - 230° 230° 4 kt METAR LFBO 010000Z AUTO 23004KT CAVOK 14/13 Q1021 NOSIG
1:30 a. m.
V
59 °F 6¼ mi+ - Var Var 3 kt METAR LFBO 302330Z AUTO VRB03KT CAVOK 15/13 Q1021 NOSIG
1:00 a. m.
V
59 °F 6¼ mi+ 7.600 ft 270° 270° 4 kt METAR LFBO 302300Z AUTO 27004KT 9999 FEW008 OVC076 15/13 Q1021 NOSIG
12:30 a. m.
V
57 °F 6¼ mi+ - 290° 290° 3 kt METAR LFBO 302230Z AUTO 29003KT CAVOK 14/13 Q1021 NOSIG
12:00 a. m.
V
57 °F 6¼ mi+ - 310° 310° 5 kt METAR LFBO 302200Z AUTO 31005KT 9999 ///CB 14/13 Q1021 BECMG SCT018 BKN030

30 de junio de 2022

Hora Código Tiempo Temp. Visibilidad Cielo nuboso Viento METAR/SPECI
11:30 p. m.
V
59 °F 6¼ mi+ 7.000 ft 320° 320° 8 kt METAR LFBO 302130Z AUTO 32008KT 9999 FEW019/// BKN070/// OVC088/// ///TCU 15/13 Q1021 BECMG SCT018 BKN030
11:00 p. m.
V
59 °F 6¼ mi+ 7.200 ft 330° 330° 8 kt METAR LFBO 302100Z AUTO 33008KT 9999 RA FEW018/// OVC072/// ///TCU 15/12 Q1021 TEMPO 4000 -SHRA BECMG SCT018 BKN030
10:30 p. m.
V
61 °F 6¼ mi+ - 320° 320° 9 kt METAR LFBO 302030Z AUTO 32009KT 9999 RA //////CB 16/13 Q1020 TEMPO 4000 -SHRA BECMG SCT018 BKN030
10:00 p. m.
V
61 °F 6¼ mi+ - 310° 310° 10 kt METAR LFBO 302000Z AUTO 31010KT 9999 //////TCU 16/12 Q1019 TEMPO 4000 -SHRA
9:30 p. m.
V
63 °F 6¼ mi+ - 320° 320° 8 kt METAR LFBO 301930Z AUTO 32008KT 9999 //////TCU 17/13 Q1019 TEMPO 4000 -SHRA
9:00 p. m.
V
63 °F 6¼ mi+ 7.600 ft 320° 320° 8 kt METAR LFBO 301900Z AUTO 32008KT 9999 FEW021 OVC076 17/12 Q1019 TEMPO 4000 -SHRA BKN020 SCT030TCU
8:30 p. m.
V
63 °F 6¼ mi+ 3.800 ft 340° 340° 8 kt METAR LFBO 301830Z AUTO 34008KT 9999 SCT021 SCT028 BKN038 17/12 Q1018 TEMPO 4000 -SHRA BKN020 SCT030TCU
8:00 p. m.
M
63 °F 6¼ mi+ 2.200 ft 320° 320° 7 kt METAR LFBO 301800Z AUTO 32007KT 9999 BKN022 BKN028 OVC035 17/12 Q1018 TEMPO 4000 -SHRA BKN020 SCT030TCU
7:30 p. m.
V
63 °F 6¼ mi+ 3.200 ft 300° 300° 7 kt METAR LFBO 301730Z AUTO 30007KT 240V330 9999 SCT023 BKN032 BKN038 17/13 Q1018 TEMPO 4000 -SHRA BKN020 SCT030TCU
7:00 p. m.
V
63 °F 6¼ mi+ 4.500 ft 310° 310° 6 kt METAR LFBO 301700Z AUTO 31006KT 280V340 9999 FEW025 BKN045 BKN058 17/12 Q1018 NOSIG
6:30 p. m.
V
63 °F 6¼ mi+ 4.100 ft 320° 320° 6 kt METAR LFBO 301630Z AUTO 32006KT 290V350 9999 SCT023 SCT031 BKN041 17/12 Q1018 NOSIG
6:00 p. m.
M
61 °F 6¼ mi+ 1.800 ft 310° 310° 9 kt METAR LFBO 301600Z AUTO 31009KT 270V350 9999 BKN018 BKN026 OVC032 16/13 Q1018 NOSIG
5:30 p. m.
M
61 °F 6¼ mi+ 2.200 ft 300° 300° 8 kt METAR LFBO 301530Z AUTO 30008KT 9999 BKN022 BKN029 OVC036 16/14 Q1018 NOSIG
5:00 p. m.
M
63 °F 6¼ mi+ 2.500 ft 330° 330° 8 kt METAR LFBO 301500Z AUTO 33008KT 9999 OVC025 17/12 Q1018 NOSIG
4:30 p. m.
M
63 °F 6¼ mi+ 2.500 ft 340° 340° 9 kt METAR LFBO 301430Z AUTO 34009KT 9999 OVC025 17/12 Q1018 BECMG 28010KT
4:00 p. m.
M
63 °F 6¼ mi+ 2.100 ft 330° 330° 8 kt METAR LFBO 301400Z AUTO 33008KT 9999 OVC021 17/13 Q1018 NOSIG
3:30 p. m.
V
63 °F 6¼ mi+ 3.600 ft 290° 290° 4 kt METAR LFBO 301330Z AUTO 29004KT 260V320 9999 FEW020 OVC036 17/13 Q1017 NOSIG
3:00 p. m.
V
61 °F 6¼ mi+ 3.400 ft 280° 280° 9 kt METAR LFBO 301300Z AUTO 28009KT 250V310 9999 FEW016 SCT028 OVC034 16/14 Q1017 NOSIG
2:30 p. m.
M
63 °F 6¼ mi+ 2.500 ft 300° 300° 7 kt METAR LFBO 301230Z AUTO 30007KT 9999 SCT019 BKN025 OVC031 17/14 Q1017 NOSIG
2:00 p. m.
M
63 °F 6¼ mi+ 2.100 ft 300° 300° 11 kt METAR LFBO 301200Z AUTO 30011KT 9999 BKN021 OVC027 17/13 Q1017 NOSIG
1:30 p. m.
M
64 °F 6¼ mi+ 2.100 ft 330° 330° 5 kt METAR LFBO 301130Z AUTO 33005KT 290V010 9999 BKN021 BKN027 OVC033 18/13 Q1017 NOSIG
1:00 p. m.
M
63 °F 6¼ mi+ 1.900 ft 320° 320° 8 kt METAR LFBO 301100Z AUTO 32008KT 290V350 9999 BKN019 OVC024 17/13 Q1017 NOSIG
12:30 p. m.
M
63 °F 6¼ mi+ 1.900 ft 320° 320° 8 kt METAR LFBO 301030Z AUTO 32008KT 290V350 9999 OVC019 17/13 Q1016 NOSIG
12:00 p. m.
M
63 °F 6¼ mi+ 1.900 ft 320° 320° 6 kt METAR LFBO 301000Z AUTO 32006KT 290V360 9999 OVC019 17/12 Q1016 NOSIG
11:30 a. m.
M
61 °F 6¼ mi+ 1.900 ft 300° 300° 8 kt METAR LFBO 300930Z AUTO 30008KT 9999 BKN019 OVC026 16/13 Q1016 NOSIG
11:00 a. m.
M
61 °F 6¼ mi+ 1.900 ft 320° 320° 8 kt METAR LFBO 300900Z AUTO 32008KT 9999 BKN019 BKN027 OVC032 16/12 Q1016 NOSIG
10:30 a. m.
M
61 °F 6¼ mi+ 2.100 ft 310° 310° 10 kt METAR LFBO 300830Z AUTO 31010KT 9999 BKN021 OVC027 16/12 Q1016 NOSIG
10:00 a. m.
M
61 °F 6¼ mi+ 2.000 ft 320° 320° 11 kt METAR LFBO 300800Z AUTO 32011KT 9999 BKN020 OVC030 16/12 Q1016 NOSIG
9:30 a. m.
V
61 °F 6¼ mi+ 3.300 ft 320° 320° 10 kt METAR LFBO 300730Z AUTO 32010KT 9999 FEW017 OVC033 16/12 Q1015 NOSIG
Datos más antiguos

Descarga nuestra aplicación

Acceso fácil a todo el tiempo de la aviación en tu teléfono móvil y tableta.
Con muchas funciones no disponibles en el sitio web, como la compatibilidad sin conexión y una lista personal de aeropuertos.

Nosotros y terceros seguimos tu comportamiento en Internet en nuestro sitio web con cookies. Si continúas, asumimos que estás de acuerdo con nuestra política de cookies. Más información